Time;durP1;ratioP1;P1;durP2;ratioP2;P2;SDS_P1;SDS_P2;PMS_P1;PMS_P2;Temp;Humidity;BMP_temperature;BMP_pressure;BME280_temperature;BME280_humidity;BME280_pressure;Samples;Min_cycle;Max_cycle;Signal;HPM_P1;HPM_P2
2022/05/13 00:01:20;;;;;;;3.35;2.25;;;;;;;11.00;67.48;97844.38;5056911;28;20069;-71
2022/05/13 00:03:45;;;;;;;4.00;2.33;;;;;;;10.99;66.96;97841.88;5072523;28;20541;-71
2022/05/13 00:06:09;;;;;;;2.65;2.22;;;;;;;11.04;66.86;97848.41;5056377;28;20506;-71
2022/05/13 00:08:35;;;;;;;2.15;1.73;;;;;;;11.11;66.54;97856.63;5056023;28;20075;-71
2022/05/13 00:11:01;;;;;;;3.10;2.20;;;;;;;11.14;66.72;97851.81;5047703;28;20117;-72
2022/05/13 00:13:29;;;;;;;2.47;2.20;;;;;;;11.15;66.53;97850.81;5042444;28;20143;-72
2022/05/13 00:15:54;;;;;;;1.73;1.60;;;;;;;11.22;66.91;97862.53;5036326;28;20143;-72
2022/05/13 00:18:19;;;;;;;2.85;2.25;;;;;;;11.23;66.71;97858.88;5050974;28;20066;-72
2022/05/13 00:20:44;;;;;;;2.85;2.05;;;;;;;11.25;66.71;97854.22;5072020;28;20066;-71
2022/05/13 00:23:09;;;;;;;5.70;1.92;;;;;;;11.24;66.14;97855.22;5078061;28;20047;-70
2022/05/13 00:25:36;;;;;;;1.83;1.70;;;;;;;11.20;65.54;97853.84;5069083;28;20032;-71
2022/05/13 00:28:01;;;;;;;3.88;1.75;;;;;;;11.24;66.20;97859.72;5060424;28;20063;-72
2022/05/13 00:30:28;;;;;;;3.10;1.63;;;;;;;11.18;65.87;97855.81;5056147;28;20036;-71
2022/05/13 00:32:53;;;;;;;2.25;1.73;;;;;;;11.13;65.70;97857.31;5071461;28;20135;-71
2022/05/13 00:35:20;;;;;;;1.58;1.48;;;;;;;11.19;65.84;97854.84;5053681;28;20119;-66
2022/05/13 00:37:45;;;;;;;2.72;1.52;;;;;;;11.15;65.49;97861.50;5055029;28;20044;-68
2022/05/13 00:40:11;;;;;;;2.13;1.92;;;;;;;11.09;65.74;97854.09;5020825;28;20046;-68
2022/05/13 00:42:36;;;;;;;1.95;1.67;;;;;;;11.06;65.35;97854.41;5053912;28;20559;-67
2022/05/13 00:45:01;;;;;;;2.22;1.38;;;;;;;11.08;65.07;97859.59;5055515;28;20089;-71
2022/05/13 00:47:28;;;;;;;5.75;1.70;;;;;;;11.06;65.26;97869.59;5055948;28;20091;-69
2022/05/13 00:49:59;;;;;;;5.60;1.65;;;;;;;11.11;64.79;97864.63;5053228;28;20032;-68
2022/05/13 00:52:25;;;;;;;2.13;1.63;;;;;;;11.04;65.23;97867.09;5054905;28;20071;-65
2022/05/13 00:54:49;;;;;;;1.52;1.15;;;;;;;11.03;65.35;97873.41;5051015;28;20046;-63
2022/05/13 00:57:15;;;;;;;1.48;1.38;;;;;;;11.06;64.93;97866.94;5054631;28;20047;-64
2022/05/13 00:59:44;;;;;;;2.20;1.80;;;;;;;11.11;65.18;97877.94;5054754;28;20035;-66
2022/05/13 01:02:10;;;;;;;1.38;1.27;;;;;;;11.03;64.43;97870.75;5051851;28;20491;-64
2022/05/13 01:04:38;;;;;;;2.60;1.70;;;;;;;11.08;64.17;97884.44;5053459;28;20088;-66
2022/05/13 01:07:15;;;;;;;2.60;1.88;;;;;;;11.17;64.67;97886.16;5054674;28;20128;-65
2022/05/13 01:09:56;;;;;;;1.58;1.48;;;;;;;11.27;64.67;97886.91;5052369;28;20422;-65
2022/05/13 01:12:26;;;;;;;3.85;1.45;;;;;;;11.24;64.40;97881.03;5072973;28;20744;-66
2022/05/13 01:15:00;;;;;;;2.58;1.70;;;;;;;11.24;62.96;97894.38;5073825;28;20051;-67
2022/05/13 01:20:13;;;;;;;2.47;1.60;;;;;;;11.26;63.33;97874.56;5074063;28;20411;-66
2022/05/13 01:22:43;;;;;;;1.50;1.40;;;;;;;11.19;62.76;97886.84;5074177;28;20071;-65
2022/05/13 01:25:11;;;;;;;5.20;2.10;;;;;;;11.20;62.26;97890.34;5075563;28;20039;-66
2022/05/13 01:27:37;;;;;;;1.80;1.70;;;;;;;11.17;62.60;97888.00;5075914;28;20044;-64
2022/05/13 01:30:02;;;;;;;1.52;1.42;;;;;;;11.12;62.17;97893.81;5075111;28;20047;-69
2022/05/13 01:32:28;;;;;;;3.05;1.85;;;;;;;11.10;62.27;97905.59;5065991;28;20036;-63
2022/05/13 01:34:52;;;;;;;5.20;2.33;;;;;;;10.89;61.86;97897.94;5059993;28;20036;-66
2022/05/13 01:37:17;;;;;;;2.67;1.35;;;;;;;10.94;62.21;97903.66;5062207;28;20047;-67
2022/05/13 01:39:42;;;;;;;1.98;1.50;;;;;;;11.01;62.41;97893.22;5058666;28;20048;-66
2022/05/13 01:42:07;;;;;;;4.13;1.40;;;;;;;11.06;62.35;97899.75;5054109;28;20100;-67
2022/05/13 01:44:32;;;;;;;2.67;1.48;;;;;;;11.11;61.87;97885.94;5053835;28;20101;-66
2022/05/13 01:46:56;;;;;;;2.22;1.67;;;;;;;11.05;61.46;97891.91;5054813;28;20043;-67
2022/05/13 01:49:21;;;;;;;3.42;1.92;;;;;;;11.01;61.92;97902.06;5036214;28;20044;-67
2022/05/13 01:51:46;;;;;;;3.38;1.65;;;;;;;11.06;61.79;97907.75;5053194;28;20455;-68
2022/05/13 01:54:10;;;;;;;6.85;1.63;;;;;;;11.05;61.60;97900.75;5053174;28;20043;-67
2022/05/13 01:56:35;;;;;;;1.25;1.15;;;;;;;11.08;61.73;97902.25;5053044;28;20533;-66
2022/05/13 01:59:00;;;;;;;2.03;1.30;;;;;;;11.03;61.13;97904.56;5054509;28;20089;-67
2022/05/13 02:01:25;;;;;;;3.50;2.00;;;;;;;11.14;60.99;97896.31;5054703;28;20048;-64
2022/05/13 02:03:50;;;;;;;2.28;1.48;;;;;;;11.10;60.62;97906.44;5036160;28;20134;-64
2022/05/13 02:06:22;;;;;;;1.70;1.35;;;;;;;11.16;60.62;97905.00;5054662;28;20799;-65
2022/05/13 02:08:47;;;;;;;4.82;1.23;;;;;;;11.17;60.73;97907.50;5054460;28;20402;-65
2022/05/13 02:11:12;;;;;;;3.92;1.92;;;;;;;11.18;60.40;97905.66;5062935;28;20105;-64
2022/05/13 02:13:37;;;;;;;3.40;1.95;;;;;;;11.17;59.78;97906.69;5073798;28;20383;-64
2022/05/13 02:16:03;;;;;;;2.78;1.80;;;;;;;11.19;60.33;97912.69;5073728;28;20776;-64
2022/05/13 02:18:28;;;;;;;2.63;1.40;;;;;;;11.13;60.00;97916.81;5075302;28;20058;-64
2022/05/13 02:20:53;;;;;;;2.65;1.75;;;;;;;11.05;59.99;97926.59;5073994;28;20035;-65
2022/05/13 02:23:20;;;;;;;3.03;1.55;;;;;;;11.19;60.36;97932.19;5074921;28;20492;-64
2022/05/13 02:25:45;;;;;;;2.20;1.50;;;;;;;11.18;59.73;97930.50;5074593;28;20036;-65
2022/05/13 02:28:09;;;;;;;1.88;1.30;;;;;;;11.24;60.46;97923.72;5076275;28;20055;-65
2022/05/13 02:30:35;;;;;;;1.58;1.40;;;;;;;11.35;60.29;97925.31;5075143;28;20051;-65
2022/05/13 02:33:01;;;;;;;5.05;1.55;;;;;;;11.25;59.58;97936.91;5024381;28;20383;-65
2022/05/13 02:35:27;;;;;;;4.05;1.50;;;;;;;11.29;60.52;97934.75;5036355;28;20093;-64
2022/05/13 02:37:52;;;;;;;2.67;1.55;;;;;;;11.21;60.35;97946.22;5054222;28;20065;-63
2022/05/13 02:40:17;;;;;;;4.32;1.98;;;;;;;11.22;60.47;97947.03;5055419;28;20043;-67
2022/05/13 02:42:42;;;;;;;3.35;1.98;;;;;;;11.10;60.13;97941.13;5039572;28;20127;-68
2022/05/13 02:45:10;;;;;;;2.10;1.63;;;;;;;11.19;60.07;97947.34;5055982;28;20122;-66
2022/05/13 02:47:36;;;;;;;2.60;1.73;;;;;;;11.27;59.83;97948.28;5056376;28;20101;-64
2022/05/13 02:50:17;;;;;;;6.47;1.85;;;;;;;11.29;60.03;97942.75;5057038;28;20518;-64
2022/05/13 02:52:42;;;;;;;1.45;1.27;;;;;;;11.35;60.06;97957.31;5056158;28;20048;-64
2022/05/13 02:55:07;;;;;;;3.60;1.98;;;;;;;11.36;59.23;97954.50;5057195;28;20093;-65
2022/05/13 02:57:32;;;;;;;15.38;2.50;;;;;;;11.36;59.22;97959.84;5057379;28;20502;-66
2022/05/13 02:59:59;;;;;;;2.03;1.60;;;;;;;11.31;59.10;97961.28;5056173;28;20590;-67
2022/05/13 03:02:23;;;;;;;4.38;1.95;;;;;;;11.34;59.41;97955.63;5055918;28;20096;-66
2022/05/13 03:04:48;;;;;;;7.30;1.98;;;;;;;11.43;59.48;97968.88;5057061;28;20028;-67
2022/05/13 03:07:13;;;;;;;3.13;1.77;;;;;;;11.49;59.37;97954.94;5055715;28;20078;-66
2022/05/13 03:09:37;;;;;;;6.30;2.42;;;;;;;11.43;58.79;97973.38;5039218;28;20051;-66
2022/05/13 03:12:02;;;;;;;6.57;2.08;;;;;;;11.51;58.97;97971.59;5058021;28;20056;-66
2022/05/13 03:14:27;;;;;;;2.05;1.52;;;;;;;11.56;59.00;97963.13;5039093;28;20047;-67
2022/05/13 03:16:52;;;;;;;1.63;1.52;;;;;;;11.55;58.75;97961.47;5057087;28;20039;-66
2022/05/13 03:19:16;;;;;;;3.45;1.45;;;;;;;11.61;58.77;97958.19;5038810;28;20044;-66
2022/05/13 03:21:41;;;;;;;4.78;1.73;;;;;;;11.55;58.58;97966.78;5022311;28;20039;-67
2022/05/13 03:24:06;;;;;;;2.25;1.52;;;;;;;11.54;58.79;97970.44;5055788;28;20054;-66
2022/05/13 03:26:31;;;;;;;3.10;1.85;;;;;;;11.58;58.78;97961.16;5038773;28;20122;-67
2022/05/13 03:28:55;;;;;;;3.13;1.52;;;;;;;11.61;58.81;97980.38;5056799;28;20103;-67
2022/05/13 03:31:20;;;;;;;7.55;2.05;;;;;;;11.68;58.20;97975.22;5057726;28;20105;-67
2022/05/13 03:33:45;;;;;;;3.75;2.00;;;;;;;11.63;57.85;97973.00;5057305;28;20032;-67
2022/05/13 03:36:12;;;;;;;5.70;3.13;;;;;;;11.58;58.15;97971.81;5057396;28;20108;-67
2022/05/13 03:38:36;;;;;;;6.30;2.22;;;;;;;11.39;58.09;97980.88;5056984;28;20538;-65
2022/05/13 03:41:01;;;;;;;4.25;2.15;;;;;;;11.41;58.37;97978.88;5056107;28;20545;-66
2022/05/13 03:43:26;;;;;;;6.97;2.00;;;;;;;11.47;58.64;97972.91;5056244;28;20467;-66
2022/05/13 03:45:51;;;;;;;2.78;1.92;;;;;;;11.60;58.30;97988.53;5056338;28;20469;-67
2022/05/13 03:48:16;;;;;;;3.15;1.77;;;;;;;11.55;58.01;97990.81;5055071;28;20044;-67
2022/05/13 03:50:44;;;;;;;5.07;2.00;;;;;;;11.63;58.14;97986.38;5056429;28;20514;-67
2022/05/13 03:53:09;;;;;;;7.47;1.98;;;;;;;11.74;58.05;97985.25;5055160;28;20042;-66
2022/05/13 03:55:35;;;;;;;5.78;2.42;;;;;;;11.80;57.86;97992.69;5037876;28;20431;-65
2022/05/13 03:58:00;;;;;;;6.38;2.75;;;;;;;11.77;57.69;97985.00;5056064;28;20039;-66
2022/05/13 04:00:25;;;;;;;3.60;2.03;;;;;;;11.95;57.52;97991.13;5055109;28;20137;-66
2022/05/13 04:02:50;;;;;;;4.28;1.83;;;;;;;12.16;57.11;97993.41;5056321;28;20043;-66
2022/05/13 04:10:42;;;;;;;2.55;1.98;;;;;;;12.28;56.39;97993.94;5044034;27;20055;-66
2022/05/13 04:16:08;;;;;;;5.13;1.75;;;;;;;12.71;55.90;97992.94;5097596;27;20498;-65
2022/05/13 04:18:40;;;;;;;5.65;2.17;;;;;;;12.93;55.40;98010.19;5079397;27;20043;-66
2022/05/13 04:21:07;;;;;;;3.13;2.42;;;;;;;13.07;54.94;97998.84;5097570;27;20085;-66
2022/05/13 04:23:34;;;;;;;3.97;2.00;;;;;;;12.89;54.09;98009.66;5078743;27;20493;-66
2022/05/13 04:25:59;;;;;;;3.72;1.73;;;;;;;12.78;54.30;98006.47;5098176;27;20039;-65
2022/05/13 04:28:24;;;;;;;2.67;1.60;;;;;;;12.89;54.27;98022.19;5100380;27;20054;-67
2022/05/13 04:30:49;;;;;;;3.78;2.28;;;;;;;12.98;54.32;98013.22;5081154;27;20058;-66
2022/05/13 04:33:15;;;;;;;3.80;2.22;;;;;;;13.13;53.40;98022.25;5081735;27;20098;-66
2022/05/13 04:35:40;;;;;;;2.63;1.65;;;;;;;13.30;53.35;98013.28;5098672;27;20055;-69
2022/05/13 04:38:05;;;;;;;3.00;1.58;;;;;;;13.52;53.10;98021.66;5080771;27;20043;-67
2022/05/13 04:40:29;;;;;;;1.65;1.52;;;;;;;13.73;52.38;98019.31;5079448;27;20096;-67
2022/05/13 04:42:55;;;;;;;1.42;1.17;;;;;;;13.79;51.80;98013.25;5096543;27;20126;-65
2022/05/13 04:45:25;;;;;;;2.35;1.40;;;;;;;13.84;52.03;98027.00;5096028;27;20172;-66
2022/05/13 04:48:18;;;;;;;3.17;1.90;;;;;;;13.89;51.04;98015.75;5077764;27;20053;-66
2022/05/13 04:50:49;;;;;;;4.43;2.28;;;;;;;13.71;51.47;98016.78;5077990;27;20047;-66
2022/05/13 04:53:21;;;;;;;5.55;2.40;;;;;;;13.92;51.55;98018.94;5095772;27;20047;-65
2022/05/13 04:55:46;;;;;;;4.15;2.03;;;;;;;14.08;51.06;98018.91;5077083;27;20520;-66
2022/05/13 04:58:11;;;;;;;4.32;1.48;;;;;;;14.20;51.34;98013.19;5077132;27;20538;-67
2022/05/13 05:00:35;;;;;;;1.70;1.55;;;;;;;14.23;51.02;98010.13;5077451;27;20564;-67
2022/05/13 05:03:01;;;;;;;5.80;1.67;;;;;;;14.01;50.42;98012.53;5077285;27;20047;-67
2022/05/13 05:05:27;;;;;;;1.58;1.45;;;;;;;14.05;50.63;98024.59;5077722;27;20659;-68
2022/05/13 05:07:52;;;;;;;4.40;1.45;;;;;;;14.03;50.78;98021.25;5096336;27;20073;-65
2022/05/13 05:10:19;;;;;;;2.03;1.40;;;;;;;14.25;50.07;98019.69;5096070;27;20041;-67
2022/05/13 05:12:45;;;;;;;2.47;1.52;;;;;;;14.36;49.84;98027.34;5060409;27;20458;-67
2022/05/13 05:15:10;;;;;;;2.80;1.85;;;;;;;14.53;48.85;98028.19;5077394;27;20453;-66
2022/05/13 05:17:35;;;;;;;5.68;2.70;;;;;;;14.64;48.97;98024.28;5095832;27;20490;-66
2022/05/13 05:19:59;;;;;;;5.18;2.15;;;;;;;14.66;48.60;98036.50;5077247;27;20043;-67
2022/05/13 05:22:24;;;;;;;3.30;2.05;;;;;;;14.71;48.91;98028.75;5060193;27;20038;-67
2022/05/13 05:24:49;;;;;;;2.05;1.40;;;;;;;14.95;48.29;98043.06;5095335;27;20031;-67
2022/05/13 05:27:14;;;;;;;3.45;2.05;;;;;;;14.99;47.97;98047.06;5076854;28;20054;-66
2022/05/13 05:29:39;;;;;;;8.85;2.28;;;;;;;14.93;48.09;98031.66;5060180;28;20043;-66
2022/05/13 05:32:04;;;;;;;4.70;1.95;;;;;;;14.83;47.74;98042.63;5078228;28;20070;-66
2022/05/13 05:34:29;;;;;;;3.38;1.85;;;;;;;14.66;48.03;98041.88;5061497;28;20507;-66
2022/05/13 05:36:54;;;;;;;4.97;1.98;;;;;;;14.93;48.00;98045.06;5095484;28;20467;-66
2022/05/13 05:39:19;;;;;;;4.32;1.88;;;;;;;15.15;48.16;98045.13;5060345;28;20043;-67
2022/05/13 05:41:44;;;;;;;3.90;2.05;;;;;;;15.45;46.94;98037.22;5060152;28;20047;-67
2022/05/13 05:44:08;;;;;;;8.88;2.97;;;;;;;15.56;46.39;98047.56;5077175;28;20046;-66
2022/05/13 05:46:33;;;;;;;3.58;1.50;;;;;;;15.52;46.92;98041.66;5076991;28;20139;-67
2022/05/13 05:48:58;;;;;;;3.13;1.80;;;;;;;15.48;46.31;98044.88;5095575;28;20400;-67
2022/05/13 05:51:23;;;;;;;5.22;2.13;;;;;;;15.47;46.58;98054.78;5095464;28;20436;-67
2022/05/13 05:59:14;;;;;;;3.30;1.48;;;;;;;16.79;45.18;98056.06;5095722;28;20070;-66
2022/05/13 06:01:39;;;;;;;4.18;2.30;;;;;;;18.26;40.95;98056.34;5095404;28;20043;-66
2022/05/13 06:04:05;;;;;;;4.85;2.00;;;;;;;18.78;39.88;98060.41;5077218;28;20047;-66
2022/05/13 06:06:30;;;;;;;6.80;2.00;;;;;;;19.39;38.32;98049.63;5077249;28;20043;-67
2022/05/13 06:08:55;;;;;;;3.67;2.13;;;;;;;19.86;37.14;98057.59;5076589;28;20043;-68
2022/05/13 06:11:20;;;;;;;1.95;1.40;;;;;;;19.71;37.44;98045.34;5095397;28;20054;-66
2022/05/13 06:13:45;;;;;;;1.80;1.45;;;;;;;19.09;38.34;98058.03;5060452;27;20053;-65
2022/05/13 06:16:09;;;;;;;3.47;2.35;;;;;;;18.53;39.12;98057.31;5099269;27;20451;-67
2022/05/13 06:18:36;;;;;;;4.50;2.03;;;;;;;18.24;39.49;98058.41;5099830;27;20053;-66
2022/05/13 06:21:00;;;;;;;3.95;2.40;;;;;;;17.71;40.06;98070.63;5080956;27;20570;-66
2022/05/13 06:23:25;;;;;;;4.28;2.28;;;;;;;18.79;38.44;98068.31;5080740;27;20042;-65
2022/05/13 06:25:50;;;;;;;2.67;2.20;;;;;;;19.65;36.88;98063.22;5080815;27;20041;-67
2022/05/13 06:28:15;;;;;;;3.10;1.75;;;;;;;19.69;36.31;98064.47;5099105;27;20070;-65
2022/05/13 06:30:40;;;;;;;3.72;2.15;;;;;;;19.04;37.30;98060.53;5100562;27;20070;-64
2022/05/13 06:33:05;;;;;;;3.70;1.75;;;;;;;18.32;38.70;98074.41;5086587;27;20050;-65
2022/05/13 06:35:32;;;;;;;2.90;1.35;;;;;;;17.86;39.73;98071.34;5089960;27;20039;-66
2022/05/13 06:37:57;;;;;;;4.88;2.40;;;;;;;17.60;41.27;98066.53;5108540;27;20095;-64
2022/05/13 06:40:23;;;;;;;7.50;2.28;;;;;;;17.25;41.25;98070.09;5105205;27;20784;-65
2022/05/13 06:42:49;;;;;;;8.25;2.13;;;;;;;16.67;42.12;98074.56;5105152;27;20043;-66
2022/05/13 06:45:13;;;;;;;5.35;1.85;;;;;;;16.32;43.18;98082.31;5101764;27;20130;-66
2022/05/13 06:47:38;;;;;;;3.67;2.22;;;;;;;16.16;44.03;98070.84;5064665;27;20172;-64
2022/05/13 06:50:05;;;;;;;1.88;1.67;;;;;;;16.05;44.19;98085.59;5098389;27;20039;-65
2022/05/13 06:52:30;;;;;;;6.22;2.50;;;;;;;15.95;44.06;98076.94;5080830;27;20054;-66
2022/05/13 06:54:55;;;;;;;3.33;2.22;;;;;;;15.63;44.60;98080.72;5079921;27;20046;-65
2022/05/13 06:57:20;;;;;;;2.92;1.70;;;;;;;16.05;44.58;98077.50;5098450;27;20047;-65
2022/05/13 06:59:45;;;;;;;2.08;1.88;;;;;;;16.57;43.89;98076.66;5102731;27;20038;-64
2022/05/13 07:02:10;;;;;;;4.38;2.00;;;;;;;16.94;42.14;98073.03;5048335;27;20043;-65
2022/05/13 07:04:35;;;;;;;3.53;1.80;;;;;;;17.72;41.07;98073.09;5062846;27;20587;-64
2022/05/13 07:07:02;;;;;;;4.63;2.03;;;;;;;18.83;39.17;98068.75;5062347;27;20039;-65
2022/05/13 07:09:27;;;;;;;3.28;1.98;;;;;;;19.99;37.23;98067.59;5097796;27;20035;-64
2022/05/13 07:11:52;;;;;;;5.53;2.03;;;;;;;20.25;36.02;98081.16;5079138;27;20058;-64
2022/05/13 07:14:17;;;;;;;9.10;3.08;;;;;;;19.94;36.06;98089.06;5062435;27;20049;-64
2022/05/13 07:16:42;;;;;;;4.40;2.25;;;;;;;19.70;37.16;98066.13;5097763;27;20517;-64
2022/05/13 07:19:07;;;;;;;2.67;2.08;;;;;;;20.30;36.11;98077.81;5079669;27;20405;-64
2022/05/13 07:21:32;;;;;;;3.70;1.80;;;;;;;22.23;32.46;98077.63;5079158;27;20043;-64
2022/05/13 07:23:57;;;;;;;1.65;1.35;;;;;;;22.72;31.53;98078.59;5097714;27;20035;-64
2022/05/13 07:26:22;;;;;;;5.05;1.85;;;;;;;23.85;29.99;98078.91;5096588;27;20401;-64
2022/05/13 07:28:47;;;;;;;6.13;2.33;;;;;;;24.93;28.17;98079.41;5078834;27;20539;-64
2022/05/13 07:31:12;;;;;;;2.97;1.80;;;;;;;25.57;27.42;98096.53;5097104;27;20501;-64
2022/05/13 07:33:37;;;;;;;1.90;1.42;;;;;;;25.11;27.73;98088.47;5097270;27;20046;-64
2022/05/13 07:36:03;;;;;;;4.65;2.70;;;;;;;23.88;28.46;98083.88;5097248;27;20043;-64
2022/05/13 07:38:30;;;;;;;5.65;2.63;;;;;;;23.06;29.37;98079.94;5078840;27;20043;-66
2022/05/13 07:43:39;;;;;;;1.52;1.42;;;;;;;21.58;31.77;98089.75;5097238;27;20401;-62
2022/05/13 07:46:06;;;;;;;7.68;2.15;;;;;;;22.05;31.53;98088.41;5098247;27;20492;-64
2022/05/13 07:48:31;;;;;;;4.13;2.25;;;;;;;22.58;30.92;98094.22;5100163;27;20504;-66
2022/05/13 07:50:55;;;;;;;5.60;2.70;;;;;;;23.75;29.79;98081.34;5085187;27;20039;-64
2022/05/13 07:53:20;;;;;;;4.65;1.60;;;;;;;24.14;28.68;98083.47;5098207;27;20409;-64
2022/05/13 07:55:45;;;;;;;4.75;1.65;;;;;;;23.74;28.98;98083.25;5096981;27;20050;-64
2022/05/13 07:58:10;;;;;;;5.05;2.10;;;;;;;23.79;28.74;98079.84;5078397;27;20043;-64
2022/05/13 08:00:37;;;;;;;4.80;1.70;;;;;;;23.89;27.65;98080.09;5096751;27;20095;-64
2022/05/13 08:03:06;;;;;;;2.95;2.05;;;;;;;24.23;27.85;98076.66;5078450;27;20126;-64
2022/05/13 08:05:36;;;;;;;4.03;1.63;;;;;;;24.75;26.20;98084.09;5096714;27;20045;-64
2022/05/13 08:08:10;;;;;;;7.20;1.85;;;;;;;26.44;25.27;98087.19;5078230;27;20374;-64
2022/05/13 08:10:36;;;;;;;4.07;1.90;;;;;;;26.92;24.09;98083.81;5096755;27;20047;-64
2022/05/13 08:13:01;;;;;;;2.58;1.48;;;;;;;26.47;24.55;98090.25;5096922;27;20099;-62
2022/05/13 08:15:27;;;;;;;7.93;2.10;;;;;;;26.86;24.13;98085.66;5096722;27;20103;-63
2022/05/13 08:17:52;;;;;;;3.15;2.08;;;;;;;27.64;22.62;98075.47;5078250;27;20127;-63
2022/05/13 08:20:17;;;;;;;1.67;1.60;;;;;;;28.73;22.08;98072.31;5097195;27;20125;-70
2022/05/13 08:22:41;;;;;;;4.50;2.45;;;;;;;30.07;20.44;98055.03;5084534;27;20039;-64
2022/05/13 08:25:07;;;;;;;6.00;2.20;;;;;;;30.50;19.64;98089.38;5096675;27;20047;-65
2022/05/13 08:27:33;;;;;;;6.28;2.45;;;;;;;29.21;19.37;98066.59;5099860;27;20038;-65
2022/05/13 08:30:01;;;;;;;3.10;1.98;;;;;;;27.79;20.94;98065.47;5096973;27;20511;-65
2022/05/13 08:32:29;;;;;;;2.70;1.88;;;;;;;27.77;22.34;98075.03;5078661;27;20603;-66
2022/05/13 08:34:54;;;;;;;3.22;2.38;;;;;;;27.78;22.07;98076.69;5096405;27;20629;-66
2022/05/13 08:37:19;;;;;;;4.47;2.33;;;;;;;26.61;22.69;98088.00;5077035;28;20035;-65
2022/05/13 08:39:44;;;;;;;4.10;2.33;;;;;;;27.61;22.51;98084.19;5077934;27;20061;-65
2022/05/13 08:42:17;;;;;;;2.70;2.40;;;;;;;29.16;20.57;98083.00;5096332;27;20045;-65
2022/05/13 08:44:49;;;;;;;3.00;2.40;;;;;;;31.59;19.38;98082.28;5096975;27;20378;-65
2022/05/13 08:47:22;;;;;;;4.90;2.70;;;;;;;33.18;17.27;98086.28;5083431;27;20539;-65
2022/05/13 08:49:53;;;;;;;3.70;2.22;;;;;;;32.25;16.30;98076.41;5106453;27;20039;-64
2022/05/13 08:55:33;;;;;;;4.10;3.20;;;;;;;31.87;17.24;98075.25;5106599;27;20072;-65
2022/05/13 08:58:01;;;;;;;3.47;2.63;;;;;;;33.56;16.36;98091.91;5087828;27;20039;-64
2022/05/13 09:00:34;;;;;;;7.75;3.35;;;;;;;33.65;15.50;98081.84;5102393;27;20053;-64
2022/05/13 09:03:03;;;;;;;;;;;;;;;32.98;17.48;98092.00;5096359;27;20046;-65
2022/05/13 09:05:35;;;;;;;3.10;2.80;;;;;;;30.28;17.99;98088.84;5095976;27;19915;-64
2022/05/13 09:08:00;;;;;;;2.90;2.50;;;;;;;29.34;18.90;98064.44;5096459;27;20039;-64
2022/05/13 09:10:25;;;;;;;3.38;2.55;;;;;;;28.49;19.18;98069.97;5078563;27;20348;-63
2022/05/13 09:13:09;;;;;;;6.68;2.30;;;;;;;27.10;20.59;98080.78;5096369;27;20150;-63
2022/05/13 09:15:50;;;;;;;3.90;2.25;;;;;;;26.53;21.75;98083.78;5095715;27;20060;-64
2022/05/13 09:18:36;;;;;;;8.18;2.90;;;;;;;27.49;20.99;98073.34;5077624;27;20129;-63
2022/05/13 09:21:16;;;;;;;9.90;2.75;;;;;;;28.98;19.95;98085.38;5095280;27;20047;-64
2022/05/13 09:23:41;;;;;;;3.83;2.20;;;;;;;28.82;19.28;98084.47;5077333;27;20043;-63
2022/05/13 09:26:13;;;;;;;3.35;2.20;;;;;;;28.75;19.31;98079.19;5095979;27;20042;-62
2022/05/13 09:29:01;;;;;;;4.40;1.85;;;;;;;27.95;20.39;98073.84;5077979;28;20625;-63
2022/05/13 09:31:29;;;;;;;6.10;2.30;;;;;;;26.39;21.13;98090.69;5077963;28;20103;-64
2022/05/13 09:33:53;;;;;;;3.17;2.17;;;;;;;25.99;22.05;98077.13;5096585;28;20039;-63
2022/05/13 09:36:21;;;;;;;2.90;2.10;;;;;;;26.62;21.46;98084.19;5078364;28;20138;-63
2022/05/13 09:38:49;;;;;;;3.33;1.90;;;;;;;27.59;20.42;98078.13;5077958;28;20043;-65
2022/05/13 09:41:26;;;;;;;2.50;1.83;;;;;;;27.55;20.47;98091.50;5097140;28;20460;-63
2022/05/13 09:44:23;;;;;;;5.40;2.33;;;;;;;26.62;20.99;98098.69;5096001;28;20074;-63
2022/05/13 09:47:07;;;;;;;3.80;2.63;;;;;;;25.55;22.93;98090.47;5095240;28;20050;-64
2022/05/13 09:49:38;;;;;;;5.40;1.77;;;;;;;24.44;23.91;98091.59;5079419;27;20043;-63
2022/05/13 09:52:16;;;;;;;2.47;2.15;;;;;;;24.07;24.45;98093.63;5101299;27;20042;-64
2022/05/13 09:54:44;;;;;;;4.90;2.38;;;;;;;23.39;25.63;98085.78;5101522;27;20077;-65
2022/05/13 09:57:08;;;;;;;3.45;1.77;;;;;;;22.91;25.95;98093.88;5100015;27;20075;-64
2022/05/13 09:59:45;;;;;;;3.40;2.13;;;;;;;22.94;25.70;98098.06;5100037;27;20073;-64
2022/05/13 10:02:16;;;;;;;1.70;1.58;;;;;;;22.24;25.79;98086.59;5064260;27;20043;-64
2022/05/13 10:04:41;;;;;;;1.42;1.33;;;;;;;22.04;26.06;98065.03;5081380;27;20598;-64
2022/05/13 10:07:13;;;;;;;3.17;1.42;;;;;;;21.58;26.44;98081.59;5100403;27;20504;-65
2022/05/13 10:15:43;;;;;;;2.40;1.50;;;;;;;20.99;28.33;98105.19;5101178;27;20505;-65
2022/05/13 10:18:45;;;;;;;5.07;1.33;;;;;;;21.01;27.97;98099.56;5083620;27;20043;-65
2022/05/13 10:21:19;;;;;;;3.85;1.90;;;;;;;21.06;28.25;98105.19;5083810;27;20498;-64
2022/05/13 10:24:07;;;;;;;3.95;1.50;;;;;;;21.16;28.10;98100.13;5081855;27;20513;-65
2022/05/13 10:26:37;;;;;;;2.85;1.15;;;;;;;21.51;28.17;98105.22;5082168;27;20038;-64
2022/05/13 10:29:23;;;;;;;7.20;1.70;;;;;;;21.47;28.28;98106.69;5081824;27;20061;-64
2022/05/13 10:31:49;;;;;;;5.05;1.35;;;;;;;21.20;27.85;98100.56;5080822;27;20442;-64
2022/05/13 10:34:20;;;;;;;1.85;1.40;;;;;;;21.41;28.26;98089.44;5080675;27;20531;-64
2022/05/13 10:36:54;;;;;;;3.67;1.98;;;;;;;21.50;28.21;98107.09;5098838;27;20046;-64
2022/05/13 10:40:06;;;;;;;1.98;1.38;;;;;;;21.66;28.24;98108.50;5099537;27;20038;-64
2022/05/13 10:42:41;;;;;;;2.53;1.42;;;;;;;21.34;27.51;98094.03;5035961;28;20293;-65
2022/05/13 10:45:17;;;;;;;3.45;1.42;;;;;;;21.10;27.74;98094.75;5019434;28;20040;-64
2022/05/13 10:47:50;;;;;;;3.45;1.33;;;;;;;20.98;28.16;98086.47;5036199;28;20507;-64
2022/05/13 10:50:51;;;;;;;3.05;1.83;;;;;;;20.91;28.99;98085.63;5019200;28;20048;-64
2022/05/13 10:53:30;;;;;;;3.72;1.52;;;;;;;20.59;29.02;98071.13;4976389;28;20057;-64
2022/05/13 10:56:04;;;;;;;4.47;1.58;;;;;;;20.43;29.57;98080.53;4976041;28;20049;-65
2022/05/13 10:59:10;;;;;;;1.67;1.58;;;;;;;20.28;29.87;98069.06;4976358;28;20062;-65
2022/05/13 11:01:48;;;;;;;1.67;1.45;;;;;;;20.00;29.82;98080.09;4975311;28;20103;-66
2022/05/13 11:04:48;;;;;;;3.88;1.50;;;;;;;19.81;29.02;98068.22;4975536;28;20065;-65
2022/05/13 11:07:30;;;;;;;1.83;1.40;;;;;;;19.73;29.44;98087.38;4975540;28;20042;-65
2022/05/13 11:10:20;;;;;;;2.88;1.65;;;;;;;19.63;29.46;98078.00;4976083;28;20065;-65
2022/05/13 11:12:56;;;;;;;4.30;1.33;;;;;;;19.43;30.24;98086.00;4992059;28;20052;-66
2022/05/13 11:15:33;;;;;;;2.63;1.83;;;;;;;19.47;30.26;98071.88;5018688;28;20055;-66
2022/05/13 11:18:37;;;;;;;1.92;1.40;;;;;;;19.68;29.67;98072.78;5017860;28;20052;-65
2022/05/13 11:21:07;;;;;;;4.20;1.65;;;;;;;19.55;29.56;98079.00;5037418;28;20052;-66
2022/05/13 11:23:32;;;;;;;1.77;1.15;;;;;;;19.31;30.54;98077.66;5026073;28;20072;-65
2022/05/13 11:26:21;;;;;;;1.25;1.02;;;;;;;19.34;31.79;98079.94;5026034;28;20076;-66
2022/05/13 11:28:46;;;;;;;2.83;1.52;;;;;;;19.26;31.70;98073.91;5037303;27;20067;-66
2022/05/13 11:31:53;;;;;;;2.58;1.77;;;;;;;19.09;31.88;98074.25;5079766;27;20074;-65
2022/05/13 11:34:36;;;;;;;2.70;1.40;;;;;;;18.38;30.99;98064.72;5068478;27;20065;-66
2022/05/13 11:37:04;;;;;;;3.38;2.30;;;;;;;18.26;30.32;98067.13;5097358;27;20120;-66
2022/05/13 11:39:41;;;;;;;3.83;0.95;;;;;;;18.24;30.79;98062.94;5078758;27;20083;-65
2022/05/13 11:42:29;;;;;;;2.80;0.90;;;;;;;18.30;31.45;98073.78;5047819;27;20046;-65
2022/05/13 11:45:13;;;;;;;1.80;1.40;;;;;;;18.16;32.34;98063.94;5062029;27;20087;-64
2022/05/13 11:47:58;;;;;;;4.20;2.47;;;;;;;17.97;33.42;98078.91;5061943;27;20497;-62
2022/05/13 11:50:25;;;;;;;3.03;1.88;;;;;;;18.07;33.54;98073.19;5045183;27;20046;-62
2022/05/13 11:52:53;;;;;;;2.55;1.80;;;;;;;18.14;32.99;98066.84;5097348;27;20794;-63
2022/05/13 11:55:47;;;;;;;4.88;1.38;;;;;;;18.37;32.22;98063.06;5078645;27;20043;-63
2022/05/13 11:58:44;;;;;;;3.78;2.40;;;;;;;18.55;31.44;98082.25;5078686;27;20104;-62
2022/05/13 12:01:10;;;;;;;4.40;2.00;;;;;;;18.35;33.95;98092.09;5055855;27;20379;-64
2022/05/13 12:03:35;;;;;;;4.10;2.20;;;;;;;17.92;36.51;98089.47;5078718;27;20051;-65
2022/05/13 12:06:09;;;;;;;5.50;1.40;;;;;;;18.10;36.59;98080.91;5078407;27;20038;-64
2022/05/13 12:08:37;;;;;;;2.92;1.80;;;;;;;18.27;35.47;98081.44;5061793;27;20049;-63
2022/05/13 12:11:01;;;;;;;5.28;2.25;;;;;;;18.36;35.11;98077.56;5078988;27;20147;-64